sensor_id;sensor_type;location;lat;lon;timestamp;temperature;humidity
21672;DHT22;10997;52.242;8.168;2022-07-18T00:00:48;15.00;99.90
21672;DHT22;10997;52.242;8.168;2022-07-18T00:05:49;14.90;99.90
21672;DHT22;10997;52.242;8.168;2022-07-18T00:10:49;14.90;99.90
21672;DHT22;10997;52.242;8.168;2022-07-18T00:15:50;14.80;99.90
21672;DHT22;10997;52.242;8.168;2022-07-18T00:20:51;14.70;99.90
21672;DHT22;10997;52.242;8.168;2022-07-18T00:25:51;14.60;99.90
21672;DHT22;10997;52.242;8.168;2022-07-18T00:30:52;14.60;99.90
21672;DHT22;10997;52.242;8.168;2022-07-18T00:35:53;14.60;99.90
21672;DHT22;10997;52.242;8.168;2022-07-18T00:40:54;14.50;99.90
21672;DHT22;10997;52.242;8.168;2022-07-18T00:45:54;14.40;99.90
21672;DHT22;10997;52.242;8.168;2022-07-18T00:50:58;14.30;99.90
21672;DHT22;10997;52.242;8.168;2022-07-18T00:55:59;14.30;99.90
21672;DHT22;10997;52.242;8.168;2022-07-18T01:01:01;14.30;99.90
21672;DHT22;10997;52.242;8.168;2022-07-18T01:06:20;14.10;99.90
21672;DHT22;10997;52.242;8.168;2022-07-18T01:11:21;14.10;99.90
21672;DHT22;10997;52.242;8.168;2022-07-18T01:16:22;14.00;99.90
21672;DHT22;10997;52.242;8.168;2022-07-18T01:21:23;13.90;99.90
21672;DHT22;10997;52.242;8.168;2022-07-18T01:26:24;13.80;99.90
21672;DHT22;10997;52.242;8.168;2022-07-18T01:31:25;13.70;99.90
21672;DHT22;10997;52.242;8.168;2022-07-18T01:36:26;13.50;99.90
21672;DHT22;10997;52.242;8.168;2022-07-18T01:41:26;13.40;99.90
21672;DHT22;10997;52.242;8.168;2022-07-18T01:46:27;13.50;99.90
21672;DHT22;10997;52.242;8.168;2022-07-18T01:51:28;13.50;99.90
21672;DHT22;10997;52.242;8.168;2022-07-18T01:56:29;13.40;99.90
21672;DHT22;10997;52.242;8.168;2022-07-18T02:01:29;13.30;99.90
21672;DHT22;10997;52.242;8.168;2022-07-18T02:06:31;13.30;99.90
21672;DHT22;10997;52.242;8.168;2022-07-18T02:11:32;13.30;99.90
21672;DHT22;10997;52.242;8.168;2022-07-18T02:16:36;13.20;99.90
21672;DHT22;10997;52.242;8.168;2022-07-18T02:21:37;13.00;99.90
21672;DHT22;10997;52.242;8.168;2022-07-18T02:26:37;12.90;99.90
21672;DHT22;10997;52.242;8.168;2022-07-18T02:31:38;12.80;99.90
21672;DHT22;10997;52.242;8.168;2022-07-18T02:36:41;12.80;99.90
21672;DHT22;10997;52.242;8.168;2022-07-18T02:41:42;12.80;99.90
21672;DHT22;10997;52.242;8.168;2022-07-18T02:46:43;12.60;99.90
21672;DHT22;10997;52.242;8.168;2022-07-18T02:51:44;12.50;99.90
21672;DHT22;10997;52.242;8.168;2022-07-18T02:56:45;12.50;99.90
21672;DHT22;10997;52.242;8.168;2022-07-18T03:01:46;12.40;99.90
21672;DHT22;10997;52.242;8.168;2022-07-18T03:06:47;12.50;99.90
21672;DHT22;10997;52.242;8.168;2022-07-18T03:11:48;12.40;99.90
21672;DHT22;10997;52.242;8.168;2022-07-18T03:16:49;12.30;99.90
21672;DHT22;10997;52.242;8.168;2022-07-18T03:21:50;12.20;99.90
21672;DHT22;10997;52.242;8.168;2022-07-18T03:26:51;12.10;99.90
21672;DHT22;10997;52.242;8.168;2022-07-18T03:31:51;12.10;99.90
21672;DHT22;10997;52.242;8.168;2022-07-18T03:36:52;12.10;99.90
21672;DHT22;10997;52.242;8.168;2022-07-18T03:41:53;12.10;99.90
21672;DHT22;10997;52.242;8.168;2022-07-18T03:46:53;12.10;99.90
21672;DHT22;10997;52.242;8.168;2022-07-18T03:51:54;12.20;99.90
21672;DHT22;10997;52.242;8.168;2022-07-18T03:56:56;12.20;99.90
21672;DHT22;10997;52.242;8.168;2022-07-18T04:01:56;12.20;99.90
21672;DHT22;10997;52.242;8.168;2022-07-18T04:06:57;12.30;99.90
21672;DHT22;10997;52.242;8.168;2022-07-18T04:12:00;12.40;99.90
21672;DHT22;10997;52.242;8.168;2022-07-18T04:17:01;12.50;99.90
21672;DHT22;10997;52.242;8.168;2022-07-18T04:22:02;12.60;99.90
21672;DHT22;10997;52.242;8.168;2022-07-18T04:27:03;12.70;99.90
21672;DHT22;10997;52.242;8.168;2022-07-18T04:32:04;12.80;99.90
21672;DHT22;10997;52.242;8.168;2022-07-18T04:37:06;12.80;99.90
21672;DHT22;10997;52.242;8.168;2022-07-18T04:42:07;13.00;99.90
21672;DHT22;10997;52.242;8.168;2022-07-18T04:47:07;13.10;99.90
21672;DHT22;10997;52.242;8.168;2022-07-18T04:52:08;13.40;99.90
21672;DHT22;10997;52.242;8.168;2022-07-18T04:57:09;13.70;99.90
21672;DHT22;10997;52.242;8.168;2022-07-18T05:02:12;13.90;99.90
21672;DHT22;10997;52.242;8.168;2022-07-18T05:07:13;14.10;99.90
21672;DHT22;10997;52.242;8.168;2022-07-18T05:12:13;14.30;99.90
21672;DHT22;10997;52.242;8.168;2022-07-18T05:17:14;14.60;99.90
21672;DHT22;10997;52.242;8.168;2022-07-18T05:22:15;15.00;99.90
21672;DHT22;10997;52.242;8.168;2022-07-18T05:27:16;15.30;99.90
21672;DHT22;10997;52.242;8.168;2022-07-18T05:32:16;15.60;99.90
21672;DHT22;10997;52.242;8.168;2022-07-18T05:37:18;15.90;99.90
21672;DHT22;10997;52.242;8.168;2022-07-18T05:42:19;16.10;99.90
21672;DHT22;10997;52.242;8.168;2022-07-18T05:47:20;16.30;99.90
21672;DHT22;10997;52.242;8.168;2022-07-18T05:52:20;16.60;99.90
21672;DHT22;10997;52.242;8.168;2022-07-18T05:57:21;16.80;99.90
21672;DHT22;10997;52.242;8.168;2022-07-18T06:02:22;16.90;99.90
21672;DHT22;10997;52.242;8.168;2022-07-18T06:07:23;17.20;99.90
21672;DHT22;10997;52.242;8.168;2022-07-18T06:12:23;17.50;99.90
21672;DHT22;10997;52.242;8.168;2022-07-18T06:17:24;17.80;99.90
21672;DHT22;10997;52.242;8.168;2022-07-18T06:22:25;18.10;99.90
21672;DHT22;10997;52.242;8.168;2022-07-18T06:27:26;18.40;99.90
21672;DHT22;10997;52.242;8.168;2022-07-18T06:32:26;18.70;99.90
21672;DHT22;10997;52.242;8.168;2022-07-18T06:37:27;19.00;99.90
21672;DHT22;10997;52.242;8.168;2022-07-18T06:42:28;19.30;99.90
21672;DHT22;10997;52.242;8.168;2022-07-18T06:47:29;19.50;99.90
21672;DHT22;10997;52.242;8.168;2022-07-18T06:52:29;19.80;99.90
21672;DHT22;10997;52.242;8.168;2022-07-18T06:57:30;20.20;99.90
21672;DHT22;10997;52.242;8.168;2022-07-18T07:02:31;20.60;99.90
21672;DHT22;10997;52.242;8.168;2022-07-18T07:07:31;21.00;99.90
21672;DHT22;10997;52.242;8.168;2022-07-18T07:12:43;21.30;99.90
21672;DHT22;10997;52.242;8.168;2022-07-18T07:17:44;21.80;99.90
21672;DHT22;10997;52.242;8.168;2022-07-18T07:22:47;22.20;99.90
21672;DHT22;10997;52.242;8.168;2022-07-18T07:27:48;22.80;99.90
21672;DHT22;10997;52.242;8.168;2022-07-18T07:32:48;23.20;99.90
21672;DHT22;10997;52.242;8.168;2022-07-18T07:37:53;23.60;99.90
21672;DHT22;10997;52.242;8.168;2022-07-18T07:43:08;23.90;99.90
21672;DHT22;10997;52.242;8.168;2022-07-18T07:48:09;24.40;99.00
21672;DHT22;10997;52.242;8.168;2022-07-18T07:53:10;24.70;98.00
21672;DHT22;10997;52.242;8.168;2022-07-18T07:58:11;24.60;97.10
21672;DHT22;10997;52.242;8.168;2022-07-18T08:03:12;24.70;96.30
21672;DHT22;10997;52.242;8.168;2022-07-18T08:08:13;25.00;95.50
21672;DHT22;10997;52.242;8.168;2022-07-18T08:13:14;25.10;95.00
21672;DHT22;10997;52.242;8.168;2022-07-18T08:18:14;25.10;93.90
21672;DHT22;10997;52.242;8.168;2022-07-18T08:23:15;25.50;93.00
21672;DHT22;10997;52.242;8.168;2022-07-18T08:28:17;25.90;91.60
21672;DHT22;10997;52.242;8.168;2022-07-18T08:33:18;26.20;91.00
21672;DHT22;10997;52.242;8.168;2022-07-18T08:38:19;25.90;90.30
21672;DHT22;10997;52.242;8.168;2022-07-18T08:43:20;25.90;89.30
21672;DHT22;10997;52.242;8.168;2022-07-18T08:48:21;25.90;89.50
21672;DHT22;10997;52.242;8.168;2022-07-18T08:53:28;25.90;89.80
21672;DHT22;10997;52.242;8.168;2022-07-18T08:58:29;26.00;87.30
21672;DHT22;10997;52.242;8.168;2022-07-18T09:03:30;26.20;86.90
21672;DHT22;10997;52.242;8.168;2022-07-18T09:08:31;26.40;84.90
21672;DHT22;10997;52.242;8.168;2022-07-18T09:13:36;26.50;83.00
21672;DHT22;10997;52.242;8.168;2022-07-18T09:18:39;27.20;81.10
21672;DHT22;10997;52.242;8.168;2022-07-18T09:23:46;27.60;77.50
21672;DHT22;10997;52.242;8.168;2022-07-18T09:28:53;27.50;73.80
21672;DHT22;10997;52.242;8.168;2022-07-18T09:33:58;27.60;73.10
21672;DHT22;10997;52.242;8.168;2022-07-18T09:38:59;28.20;69.20
21672;DHT22;10997;52.242;8.168;2022-07-18T09:44:14;28.40;67.50
21672;DHT22;10997;52.242;8.168;2022-07-18T09:49:15;28.30;65.90
21672;DHT22;10997;52.242;8.168;2022-07-18T09:54:15;28.10;64.90
21672;DHT22;10997;52.242;8.168;2022-07-18T09:59:16;27.80;64.70
21672;DHT22;10997;52.242;8.168;2022-07-18T10:04:17;27.90;65.80
21672;DHT22;10997;52.242;8.168;2022-07-18T10:09:18;28.20;63.10
21672;DHT22;10997;52.242;8.168;2022-07-18T10:14:19;28.40;62.60
21672;DHT22;10997;52.242;8.168;2022-07-18T10:19:20;28.90;63.60
21672;DHT22;10997;52.242;8.168;2022-07-18T10:24:24;29.40;62.60
21672;DHT22;10997;52.242;8.168;2022-07-18T10:29:24;29.30;61.70
21672;DHT22;10997;52.242;8.168;2022-07-18T10:34:32;29.30;60.70
21672;DHT22;10997;52.242;8.168;2022-07-18T10:39:35;29.90;59.50
21672;DHT22;10997;52.242;8.168;2022-07-18T10:44:36;30.70;59.50
21672;DHT22;10997;52.242;8.168;2022-07-18T11:00:06;31.30;56.10
21672;DHT22;10997;52.242;8.168;2022-07-18T11:16:13;31.40;52.40
21672;DHT22;10997;52.242;8.168;2022-07-18T11:26:19;31.30;50.30
21672;DHT22;10997;52.242;8.168;2022-07-18T11:31:20;31.70;49.60
21672;DHT22;10997;52.242;8.168;2022-07-18T11:36:23;31.90;49.70
21672;DHT22;10997;52.242;8.168;2022-07-18T11:41:28;31.40;49.90
21672;DHT22;10997;52.242;8.168;2022-07-18T11:46:29;31.30;49.70
21672;DHT22;10997;52.242;8.168;2022-07-18T11:51:43;31.50;49.50
21672;DHT22;10997;52.242;8.168;2022-07-18T11:56:55;31.60;48.90
21672;DHT22;10997;52.242;8.168;2022-07-18T12:01:55;31.70;50.20
21672;DHT22;10997;52.242;8.168;2022-07-18T12:07:24;31.60;48.80
21672;DHT22;10997;52.242;8.168;2022-07-18T12:12:25;31.90;49.20
21672;DHT22;10997;52.242;8.168;2022-07-18T12:17:28;31.90;46.80
21672;DHT22;10997;52.242;8.168;2022-07-18T12:22:29;32.50;47.90
21672;DHT22;10997;52.242;8.168;2022-07-18T12:32:48;33.60;44.80
21672;DHT22;10997;52.242;8.168;2022-07-18T12:37:56;33.60;43.70
21672;DHT22;10997;52.242;8.168;2022-07-18T12:43:08;33.50;43.70
21672;DHT22;10997;52.242;8.168;2022-07-18T12:48:11;32.90;43.50
21672;DHT22;10997;52.242;8.168;2022-07-18T12:53:12;33.60;44.50
21672;DHT22;10997;52.242;8.168;2022-07-18T12:58:13;34.00;43.50
21672;DHT22;10997;52.242;8.168;2022-07-18T13:03:15;33.70;44.00
21672;DHT22;10997;52.242;8.168;2022-07-18T13:08:15;33.20;44.10
21672;DHT22;10997;52.242;8.168;2022-07-18T13:13:18;33.50;44.00
21672;DHT22;10997;52.242;8.168;2022-07-18T13:18:19;33.70;45.30
21672;DHT22;10997;52.242;8.168;2022-07-18T13:23:20;34.00;45.70
21672;DHT22;10997;52.242;8.168;2022-07-18T13:28:20;33.70;43.90
21672;DHT22;10997;52.242;8.168;2022-07-18T13:33:21;33.60;43.00
21672;DHT22;10997;52.242;8.168;2022-07-18T13:38:22;33.40;42.40
21672;DHT22;10997;52.242;8.168;2022-07-18T13:43:22;34.00;43.80
21672;DHT22;10997;52.242;8.168;2022-07-18T13:48:23;34.30;43.60
21672;DHT22;10997;52.242;8.168;2022-07-18T13:53:25;34.60;43.40
21672;DHT22;10997;52.242;8.168;2022-07-18T13:58:26;35.00;43.70
21672;DHT22;10997;52.242;8.168;2022-07-18T14:03:27;34.70;42.90
21672;DHT22;10997;52.242;8.168;2022-07-18T14:08:27;33.90;43.20
21672;DHT22;10997;52.242;8.168;2022-07-18T14:13:28;34.10;43.70
21672;DHT22;10997;52.242;8.168;2022-07-18T14:18:35;34.20;44.30
21672;DHT22;10997;52.242;8.168;2022-07-18T14:23:36;34.10;43.20
21672;DHT22;10997;52.242;8.168;2022-07-18T14:28:36;33.70;43.30
21672;DHT22;10997;52.242;8.168;2022-07-18T14:33:37;33.50;44.20
21672;DHT22;10997;52.242;8.168;2022-07-18T14:38:38;33.70;44.60
21672;DHT22;10997;52.242;8.168;2022-07-18T14:43:39;33.50;44.20
21672;DHT22;10997;52.242;8.168;2022-07-18T14:48:39;33.90;43.60
21672;DHT22;10997;52.242;8.168;2022-07-18T14:53:40;34.20;42.40
21672;DHT22;10997;52.242;8.168;2022-07-18T14:58:41;34.10;43.40
21672;DHT22;10997;52.242;8.168;2022-07-18T15:03:42;33.30;42.30
21672;DHT22;10997;52.242;8.168;2022-07-18T15:08:43;32.90;43.20
21672;DHT22;10997;52.242;8.168;2022-07-18T15:13:44;32.70;43.90
21672;DHT22;10997;52.242;8.168;2022-07-18T15:18:45;32.70;43.50
21672;DHT22;10997;52.242;8.168;2022-07-18T15:23:46;32.60;43.40
21672;DHT22;10997;52.242;8.168;2022-07-18T15:28:46;32.60;43.30
21672;DHT22;10997;52.242;8.168;2022-07-18T15:33:47;32.60;43.70
21672;DHT22;10997;52.242;8.168;2022-07-18T15:38:48;32.50;43.60
21672;DHT22;10997;52.242;8.168;2022-07-18T15:43:50;32.70;43.60
21672;DHT22;10997;52.242;8.168;2022-07-18T15:48:51;32.90;44.10
21672;DHT22;10997;52.242;8.168;2022-07-18T15:53:52;33.10;45.30
21672;DHT22;10997;52.242;8.168;2022-07-18T15:58:52;33.90;43.90
21672;DHT22;10997;52.242;8.168;2022-07-18T16:03:53;34.30;42.60
21672;DHT22;10997;52.242;8.168;2022-07-18T16:08:54;34.70;42.50
21672;DHT22;10997;52.242;8.168;2022-07-18T16:13:55;34.50;41.80
21672;DHT22;10997;52.242;8.168;2022-07-18T16:18:55;35.00;42.80
21672;DHT22;10997;52.242;8.168;2022-07-18T16:23:56;34.90;42.10
21672;DHT22;10997;52.242;8.168;2022-07-18T16:28:57;34.70;42.50
21672;DHT22;10997;52.242;8.168;2022-07-18T16:33:58;34.40;43.70
21672;DHT22;10997;52.242;8.168;2022-07-18T16:38:58;35.10;42.90
21672;DHT22;10997;52.242;8.168;2022-07-18T16:44:00;35.60;41.50
21672;DHT22;10997;52.242;8.168;2022-07-18T16:49:01;35.60;41.90
21672;DHT22;10997;52.242;8.168;2022-07-18T16:54:01;35.70;42.10
21672;DHT22;10997;52.242;8.168;2022-07-18T16:59:02;36.10;41.30
21672;DHT22;10997;52.242;8.168;2022-07-18T17:04:03;36.00;41.70
21672;DHT22;10997;52.242;8.168;2022-07-18T17:09:04;34.50;43.20
21672;DHT22;10997;52.242;8.168;2022-07-18T17:14:05;34.50;41.80
21672;DHT22;10997;52.242;8.168;2022-07-18T17:19:06;34.70;41.10
21672;DHT22;10997;52.242;8.168;2022-07-18T17:24:08;34.80;42.10
21672;DHT22;10997;52.242;8.168;2022-07-18T17:29:09;34.90;41.60
21672;DHT22;10997;52.242;8.168;2022-07-18T17:34:10;34.70;40.80
21672;DHT22;10997;52.242;8.168;2022-07-18T17:39:11;34.50;41.10
21672;DHT22;10997;52.242;8.168;2022-07-18T17:44:12;34.00;41.70
21672;DHT22;10997;52.242;8.168;2022-07-18T17:49:13;34.30;41.50
21672;DHT22;10997;52.242;8.168;2022-07-18T17:54:14;34.30;42.20
21672;DHT22;10997;52.242;8.168;2022-07-18T18:05:12;34.10;43.50
21672;DHT22;10997;52.242;8.168;2022-07-18T18:10:13;34.30;44.10
21672;DHT22;10997;52.242;8.168;2022-07-18T18:15:14;34.30;44.00
21672;DHT22;10997;52.242;8.168;2022-07-18T18:20:14;34.70;44.20
21672;DHT22;10997;52.242;8.168;2022-07-18T18:25:15;34.40;43.10
21672;DHT22;10997;52.242;8.168;2022-07-18T18:30:16;34.10;45.10
21672;DHT22;10997;52.242;8.168;2022-07-18T18:35:17;34.60;46.70
21672;DHT22;10997;52.242;8.168;2022-07-18T18:40:19;34.10;49.70
21672;DHT22;10997;52.242;8.168;2022-07-18T18:45:20;33.70;50.80
21672;DHT22;10997;52.242;8.168;2022-07-18T18:50:21;34.00;51.70
21672;DHT22;10997;52.242;8.168;2022-07-18T18:55:21;33.50;52.70
21672;DHT22;10997;52.242;8.168;2022-07-18T19:00:22;33.20;53.20
21672;DHT22;10997;52.242;8.168;2022-07-18T19:05:23;33.20;53.40
21672;DHT22;10997;52.242;8.168;2022-07-18T19:10:24;32.60;55.50
21672;DHT22;10997;52.242;8.168;2022-07-18T19:15:25;32.20;56.70
21672;DHT22;10997;52.242;8.168;2022-07-18T19:20:26;31.60;57.80
21672;DHT22;10997;52.242;8.168;2022-07-18T19:25:26;30.90;59.20
21672;DHT22;10997;52.242;8.168;2022-07-18T19:30:27;30.10;59.10
21672;DHT22;10997;52.242;8.168;2022-07-18T19:35:30;29.40;60.50
21672;DHT22;10997;52.242;8.168;2022-07-18T19:40:31;28.80;62.80
21672;DHT22;10997;52.242;8.168;2022-07-18T19:45:31;28.10;64.80
21672;DHT22;10997;52.242;8.168;2022-07-18T19:50:32;27.50;67.30
21672;DHT22;10997;52.242;8.168;2022-07-18T19:55:34;26.80;69.50
21672;DHT22;10997;52.242;8.168;2022-07-18T20:00:35;26.40;69.60
21672;DHT22;10997;52.242;8.168;2022-07-18T20:05:38;26.00;69.60
21672;DHT22;10997;52.242;8.168;2022-07-18T20:10:39;25.90;69.80
21672;DHT22;10997;52.242;8.168;2022-07-18T20:15:40;25.70;70.40
21672;DHT22;10997;52.242;8.168;2022-07-18T20:20:41;25.40;71.80
21672;DHT22;10997;52.242;8.168;2022-07-18T20:25:42;25.10;74.00
21672;DHT22;10997;52.242;8.168;2022-07-18T20:30:42;24.70;77.30
21672;DHT22;10997;52.242;8.168;2022-07-18T20:35:43;24.30;79.90
21672;DHT22;10997;52.242;8.168;2022-07-18T20:40:44;24.10;81.80
21672;DHT22;10997;52.242;8.168;2022-07-18T20:45:45;23.90;81.70
21672;DHT22;10997;52.242;8.168;2022-07-18T20:50:45;23.70;82.40
21672;DHT22;10997;52.242;8.168;2022-07-18T20:55:46;23.40;85.30
21672;DHT22;10997;52.242;8.168;2022-07-18T21:00:47;23.10;89.00
21672;DHT22;10997;52.242;8.168;2022-07-18T21:05:47;22.80;91.00
21672;DHT22;10997;52.242;8.168;2022-07-18T21:10:48;22.60;92.30
21672;DHT22;10997;52.242;8.168;2022-07-18T21:15:49;22.20;92.90
21672;DHT22;10997;52.242;8.168;2022-07-18T21:20:50;22.10;93.60
21672;DHT22;10997;52.242;8.168;2022-07-18T21:25:51;22.00;94.40
21672;DHT22;10997;52.242;8.168;2022-07-18T21:30:52;21.90;95.10
21672;DHT22;10997;52.242;8.168;2022-07-18T21:35:52;21.70;96.30
21672;DHT22;10997;52.242;8.168;2022-07-18T21:40:53;21.50;97.60
21672;DHT22;10997;52.242;8.168;2022-07-18T21:45:54;21.30;98.60
21672;DHT22;10997;52.242;8.168;2022-07-18T21:50:55;21.10;99.70
21672;DHT22;10997;52.242;8.168;2022-07-18T21:55:56;20.90;99.90
21672;DHT22;10997;52.242;8.168;2022-07-18T22:00:57;20.70;99.90
21672;DHT22;10997;52.242;8.168;2022-07-18T22:05:57;20.60;99.90
21672;DHT22;10997;52.242;8.168;2022-07-18T22:10:58;20.50;99.90
21672;DHT22;10997;52.242;8.168;2022-07-18T22:15:59;20.50;99.90
21672;DHT22;10997;52.242;8.168;2022-07-18T22:21:00;20.40;99.90
21672;DHT22;10997;52.242;8.168;2022-07-18T22:26:00;20.10;99.90
21672;DHT22;10997;52.242;8.168;2022-07-18T22:31:02;20.10;99.90
21672;DHT22;10997;52.242;8.168;2022-07-18T22:36:02;20.00;99.90
21672;DHT22;10997;52.242;8.168;2022-07-18T22:41:03;19.90;99.90
21672;DHT22;10997;52.242;8.168;2022-07-18T22:46:04;19.70;99.90
21672;DHT22;10997;52.242;8.168;2022-07-18T22:51:05;19.70;99.90
21672;DHT22;10997;52.242;8.168;2022-07-18T22:56:06;19.60;99.90
21672;DHT22;10997;52.242;8.168;2022-07-18T23:01:06;19.50;99.90
21672;DHT22;10997;52.242;8.168;2022-07-18T23:06:07;19.60;99.90
21672;DHT22;10997;52.242;8.168;2022-07-18T23:11:08;19.40;99.90
21672;DHT22;10997;52.242;8.168;2022-07-18T23:16:09;19.30;99.90
21672;DHT22;10997;52.242;8.168;2022-07-18T23:21:09;19.00;99.90
21672;DHT22;10997;52.242;8.168;2022-07-18T23:26:10;18.80;99.90
21672;DHT22;10997;52.242;8.168;2022-07-18T23:31:11;18.70;99.90
21672;DHT22;10997;52.242;8.168;2022-07-18T23:36:12;18.50;99.90
21672;DHT22;10997;52.242;8.168;2022-07-18T23:41:12;18.40;99.90
21672;DHT22;10997;52.242;8.168;2022-07-18T23:46:13;18.30;99.90
21672;DHT22;10997;52.242;8.168;2022-07-18T23:51:14;18.20;99.90
21672;DHT22;10997;52.242;8.168;2022-07-18T23:56:14;18.10;99.90
